This is the latest recevied weather packets stored in our database for station/object WA1TYB-13. If no packets are shown the sender has not sent any weather packets the latest 1 day(s).
| Time | Temp. | Humidity | Pressure | Rain* | Wind** | Luminosity | Snow |
|---|---|---|---|---|---|---|---|
| 1778114364 | 20.56° C | 24% | 1011.1 hPa | 0 mm | - | 95 W/m² | - |
| 1778114059 | 20.56° C | 27% | 1011.2 hPa | 0 mm | - | 97 W/m² | - |
| 1778113754 | 20.56° C | 25% | 1011.3 hPa | 0 mm | - | 109 W/m² | - |
| 1778113451 | 20.56° C | 25% | 1011.3 hPa | 0 mm | - | 81 W/m² | - |
| 1778113148 | 21.11° C | 24% | 1011.1 hPa | 0 mm | - | 94 W/m² | - |
| 1778112845 | 21.67° C | 23% | 1011.4 hPa | 0 mm | - | 189 W/m² | - |
| 1778112237 | 21.67° C | 23% | 1011.2 hPa | 0 mm | - | 360 W/m² | - |
| 1778110722 | 21.11° C | 24% | 1011.2 hPa | 0 mm | - | 148 W/m² | - |
| 1778110115 | 21.11° C | 24% | 1011.5 hPa | 0 mm | - | 157 W/m² | - |
| 1778109205 | 21.11° C | 23% | 1011.5 hPa | 0 mm | - | 448 W/m² | - |
| 1778107083 | 20.56° C | 26% | 1012.1 hPa | 0 mm | - | 551 W/m² | - |
| 1778104351 | 19.44° C | 27% | 1013.5 hPa | 0 mm | - | 565 W/m² | - |
| 1778103443 | 18.89° C | 28% | 1013.6 hPa | 0 mm | - | 530 W/m² | - |
| 1778103140 | 18.89° C | 26% | 1013.5 hPa | 0 mm | - | 597 W/m² | - |
| 1778101622 | 17.78° C | 30% | 1014 hPa | 0 mm | - | 674 W/m² | - |
| 1778101016 | 17.78° C | 29% | 1013.9 hPa | 0 mm | - | 642 W/m² | - |
| 1778100105 | 17.22° C | 31% | 1014.4 hPa | 0 mm | - | 660 W/m² | - |
| 1778099500 | 17.22° C | 31% | 1014.5 hPa | 0 mm | - | 629 W/m² | - |
| 1778099198 | 16.67° C | 30% | 1014.7 hPa | 0 mm | - | 682 W/m² | - |
| 1778098591 | 16.11° C | 31% | 1014.9 hPa | 0 mm | - | 688 W/m² | - |
| 1778097984 | 16.11° C | 30% | 1015 hPa | 0 mm | - | 649 W/m² | - |
| 1778097074 | 15.56° C | 30% | 1015.6 hPa | 0 mm | - | 615 W/m² | - |
| 1778094952 | 14.44° C | 34% | 1016.1 hPa | 0 mm | - | 656 W/m² | - |
| 1778094042 | 13.89° C | 34% | 1016.2 hPa | 0 mm | - | 642 W/m² | - |
| 1778093436 | 13.33° C | 34% | 1016.6 hPa | 0 mm | - | 605 W/m² | - |
* Rain latest hour (hover to see other rain measurements)
** Current wind speed in m/s (hover to see current wind gust speed)